Time;durP1;ratioP1;P1;durP2;ratioP2;P2;SDS_P1;SDS_P2;PMS_P1;PMS_P2;Temp;Humidity;BMP_temperature;BMP_pressure;BME280_temperature;BME280_humidity;BME280_pressure;Samples;Min_cycle;Max_cycle;Signal;HPM_P1;HPM_P2
2021/12/24 00:00:58;;;;;;;5.85;5.50;;;5.30;99.90;;;;;;4996437;28;20037;-85
2021/12/24 00:03:24;;;;;;;1.75;1.75;;;5.30;99.90;;;;;;5012346;28;20053;-89
2021/12/24 00:05:50;;;;;;;9.13;3.25;;;5.40;99.90;;;;;;5027154;28;20050;-90
2021/12/24 00:08:15;;;;;;;16.40;4.25;;;5.40;99.90;;;;;;5014049;28;20056;-93
2021/12/24 00:10:45;;;;;;;9.20;3.13;;;5.40;99.90;;;;;;4996397;28;20502;-89
2021/12/24 00:13:14;;;;;;;7.47;5.68;;;5.40;99.90;;;;;;5012693;28;20045;-89
2021/12/24 00:16:03;;;;;;;8.20;3.70;;;5.40;99.90;;;;;;5018188;28;20121;-89
2021/12/24 00:18:36;;;;;;;10.25;2.83;;;5.40;99.90;;;;;;5000452;28;20061;-89
2021/12/24 00:35:55;;;;;;;7.10;3.00;;;5.50;99.90;;;;;;4995685;28;20054;-88
2021/12/24 00:38:21;;;;;;;7.32;3.67;;;5.50;99.90;;;;;;4979406;28;20221;-91
2021/12/24 00:40:48;;;;;;;4.65;4.15;;;5.60;99.90;;;;;;4979192;28;20492;-89
2021/12/24 00:43:16;;;;;;;2.38;2.20;;;5.60;99.90;;;;;;4979286;28;20620;-89
2021/12/24 00:45:45;;;;;;;2.58;2.40;;;5.60;99.90;;;;;;4995722;28;20487;-90
2021/12/24 00:48:14;;;;;;;9.00;3.60;;;5.60;99.90;;;;;;4979528;28;20157;-90
2021/12/24 00:51:32;;;;;;;9.30;2.22;;;5.60;99.90;;;;;;4979460;28;20133;-91
2021/12/24 00:56:07;;;;;;;1.88;1.70;;;5.60;99.90;;;;;;4979672;28;20065;-89
2021/12/24 00:58:32;;;;;;;11.98;3.00;;;5.70;99.90;;;;;;4979214;28;20138;-90
2021/12/24 01:00:58;;;;;;;1.35;1.35;;;5.70;99.90;;;;;;4994396;28;20137;-90
2021/12/24 01:03:24;;;;;;;2.25;1.23;;;5.70;99.90;;;;;;5016752;28;20115;-87
2021/12/24 01:05:50;;;;;;;3.67;2.28;;;5.80;99.90;;;;;;4999689;28;20065;-90
2021/12/24 01:08:17;;;;;;;3.95;3.13;;;5.80;99.90;;;;;;4999285;28;20057;-90
2021/12/24 01:10:46;;;;;;;4.82;3.85;;;5.80;99.90;;;;;;4999373;28;20078;-86
2021/12/24 01:13:13;;;;;;;3.22;1.65;;;5.80;99.90;;;;;;5000835;28;20491;-89
2021/12/24 01:15:50;;;;;;;1.80;1.70;;;5.90;99.90;;;;;;5030349;28;20049;-84
2021/12/24 01:18:30;;;;;;;6.25;4.65;;;5.90;99.90;;;;;;5011550;28;20050;-89
2021/12/24 01:26:02;;;;;;;3.90;3.70;;;5.90;99.90;;;;;;5014580;28;20089;-90
2021/12/24 01:29:02;;;;;;;12.18;2.33;;;5.90;99.90;;;;;;5015689;28;20100;-90
2021/12/24 01:42:48;;;;;;;4.88;4.32;;;6.00;99.90;;;;;;4974902;28;20420;-88
2021/12/24 01:45:22;;;;;;;6.32;2.63;;;6.10;99.90;;;;;;4974930;28;20082;-86
2021/12/24 01:47:50;;;;;;;2.15;2.08;;;6.00;99.90;;;;;;4959011;28;20057;-87
2021/12/24 01:50:17;;;;;;;7.88;2.10;;;6.10;99.90;;;;;;4958600;28;20069;-88
2021/12/24 01:52:43;;;;;;;0.73;0.73;;;6.10;99.90;;;;;;4958623;28;20083;-88
2021/12/24 01:55:10;;;;;;;4.80;4.45;;;6.10;99.90;;;;;;4974557;28;20554;-89
2021/12/24 01:57:38;;;;;;;0.90;0.90;;;6.10;99.90;;;;;;4990847;28;20062;-86
2021/12/24 02:00:06;;;;;;;2.95;1.38;;;6.10;99.90;;;;;;4974569;28;20432;-87
2021/12/24 02:02:32;;;;;;;6.35;3.20;;;6.20;99.90;;;;;;4958269;28;20046;-86
2021/12/24 02:04:58;;;;;;;19.95;2.50;;;6.20;99.90;;;;;;4974298;28;20170;-87
2021/12/24 02:07:23;;;;;;;2.60;1.02;;;6.30;99.90;;;;;;4974085;28;20055;-85
2021/12/24 02:09:49;;;;;;;1.05;0.88;;;6.30;99.90;;;;;;4958020;28;20187;-90
2021/12/24 02:12:16;;;;;;;6.15;1.02;;;6.20;99.90;;;;;;4959416;28;20065;-89
2021/12/24 02:14:47;;;;;;;3.10;1.02;;;6.30;99.90;;;;;;4993239;28;20054;-89
2021/12/24 02:17:37;;;;;;;2.42;2.22;;;6.30;99.90;;;;;;5012821;28;20062;-90
2021/12/24 02:28:36;;;;;;;0.93;0.93;;;6.40;99.90;;;;;;4998038;28;20056;-90
2021/12/24 02:31:03;;;;;;;1.42;0.65;;;6.50;99.90;;;;;;5014988;28;20037;-91
2021/12/24 02:33:29;;;;;;;1.15;1.00;;;6.50;99.90;;;;;;4997828;28;20041;-89
2021/12/24 02:35:55;;;;;;;1.17;1.17;;;6.50;99.90;;;;;;4998016;28;20053;-89
2021/12/24 02:38:21;;;;;;;2.25;2.15;;;6.50;99.90;;;;;;4997687;28;20045;-90
2021/12/24 02:40:47;;;;;;;5.45;0.80;;;6.50;99.90;;;;;;5015292;28;20050;-90
2021/12/24 02:43:17;;;;;;;1.83;1.02;;;6.60;99.90;;;;;;4998035;28;20061;-89
2021/12/24 02:45:45;;;;;;;3.45;3.25;;;6.50;99.90;;;;;;5015262;28;20112;-91
2021/12/24 02:48:35;;;;;;;1.63;1.52;;;6.50;99.90;;;;;;5013845;28;20053;-89
2021/12/24 02:56:26;;;;;;;1.13;0.82;;;6.60;99.90;;;;;;4997320;28;20132;-91
2021/12/24 02:58:52;;;;;;;1.85;1.73;;;6.60;99.90;;;;;;5013990;28;20108;-90
2021/12/24 03:01:25;;;;;;;0.88;0.88;;;6.60;99.90;;;;;;4997702;28;20112;-90
2021/12/24 03:03:51;;;;;;;0.32;0.32;;;6.60;99.90;;;;;;4998038;28;20054;-92
2021/12/24 03:06:26;;;;;;;0.43;0.40;;;6.60;99.90;;;;;;4997874;28;20069;-92
2021/12/24 03:08:52;;;;;;;1.70;0.85;;;6.60;99.90;;;;;;4999283;28;20130;-92
2021/12/24 03:11:19;;;;;;;0.40;0.40;;;6.70;99.90;;;;;;5017768;28;20041;-90
2021/12/24 03:13:45;;;;;;;2.25;1.60;;;6.70;99.90;;;;;;4998084;28;20089;-91
2021/12/24 03:16:11;;;;;;;4.75;0.68;;;6.70;99.90;;;;;;4997566;28;20058;-91
2021/12/24 03:18:40;;;;;;;2.03;1.88;;;6.80;99.90;;;;;;4997016;28;20061;-89
2021/12/24 03:21:15;;;;;;;1.50;1.20;;;6.70;99.90;;;;;;5013310;28;20057;-90
2021/12/24 03:26:37;;;;;;;1.08;0.80;;;6.70;99.90;;;;;;4954159;29;20051;-91
2021/12/24 03:29:05;;;;;;;1.25;1.17;;;6.80;99.90;;;;;;4938960;29;20078;-90
2021/12/24 03:31:31;;;;;;;0.73;0.57;;;6.80;99.90;;;;;;4938684;29;20146;-91
2021/12/24 03:33:57;;;;;;;0.63;0.63;;;6.80;99.90;;;;;;4922567;29;20051;-90
2021/12/24 03:36:26;;;;;;;2.88;0.88;;;6.80;99.90;;;;;;4938187;29;20066;-90
2021/12/24 03:38:53;;;;;;;2.17;2.05;;;6.80;99.90;;;;;;4938079;29;20051;-91
2021/12/24 03:41:19;;;;;;;3.72;1.10;;;6.90;99.90;;;;;;4954252;29;20493;-89
2021/12/24 03:43:45;;;;;;;0.80;0.50;;;6.90;99.90;;;;;;4938232;29;20071;-85
2021/12/24 03:46:15;;;;;;;1.08;0.80;;;7.00;99.90;;;;;;4938356;29;20528;-89
2021/12/24 03:56:37;;;;;;;0.22;0.22;;;7.10;99.90;;;;;;4937826;29;20051;-90
2021/12/24 03:59:05;;;;;;;0.65;0.65;;;7.10;99.90;;;;;;4938230;29;20055;-91
2021/12/24 04:01:32;;;;;;;2.63;1.13;;;7.10;99.90;;;;;;4937900;29;20103;-92
2021/12/24 04:03:57;;;;;;;3.58;2.42;;;7.20;99.90;;;;;;4968219;28;20064;-90
2021/12/24 04:06:23;;;;;;;1.83;1.05;;;7.30;99.90;;;;;;4996346;28;20062;-90
2021/12/24 04:08:49;;;;;;;2.00;1.27;;;7.40;99.90;;;;;;4996386;28;20081;-87
2021/12/24 04:11:15;;;;;;;5.25;2.28;;;7.40;99.90;;;;;;4996222;28;20054;-89
2021/12/24 04:13:41;;;;;;;3.45;2.78;;;7.40;99.90;;;;;;5012726;28;20104;-91
2021/12/24 04:16:07;;;;;;;2.72;2.50;;;7.50;99.90;;;;;;5014226;28;20084;-89
2021/12/24 04:24:59;;;;;;;2.90;1.95;;;7.70;99.90;;;;;;5013658;28;20077;-91
2021/12/24 04:27:29;;;;;;;7.63;2.10;;;7.70;99.90;;;;;;5013527;28;20053;-89
2021/12/24 04:30:04;;;;;;;1.60;1.52;;;7.70;99.90;;;;;;4996395;28;20050;-87
2021/12/24 04:32:47;;;;;;;3.22;1.80;;;7.70;99.90;;;;;;4996498;28;20092;-90
2021/12/24 05:03:23;;;;;;;1.63;1.52;;;7.90;99.90;;;;;;4942950;29;20067;-89
2021/12/24 05:05:54;;;;;;;6.55;3.20;;;7.90;99.90;;;;;;4941352;29;20536;-89
2021/12/24 05:08:23;;;;;;;0.32;0.30;;;7.90;99.90;;;;;;4940731;28;20062;-88
2021/12/24 05:10:51;;;;;;;5.68;3.70;;;7.90;99.90;;;;;;4941036;29;20050;-86
2021/12/24 05:13:19;;;;;;;6.60;3.80;;;8.00;99.90;;;;;;4940695;29;20082;-85
2021/12/24 05:15:48;;;;;;;3.88;3.55;;;8.00;99.90;;;;;;4971709;28;20419;-87
2021/12/24 05:18:33;;;;;;;8.82;3.42;;;7.90;99.90;;;;;;4996183;28;20060;-90
2021/12/24 05:23:42;;;;;;;4.65;4.15;;;7.90;99.90;;;;;;4996247;28;20058;-90
2021/12/24 05:26:09;;;;;;;3.20;2.22;;;8.00;99.90;;;;;;4979864;28;20046;-88
2021/12/24 05:28:38;;;;;;;6.18;3.65;;;8.00;99.90;;;;;;4997565;28;20050;-89
2021/12/24 05:31:04;;;;;;;6.60;2.83;;;8.00;99.90;;;;;;4996306;28;20077;-82
2021/12/24 05:33:29;;;;;;;8.07;3.13;;;8.00;99.90;;;;;;4979878;28;20136;-88
2021/12/24 05:35:55;;;;;;;3.67;3.40;;;8.00;99.90;;;;;;4979731;28;20081;-88
2021/12/24 05:38:21;;;;;;;4.32;4.03;;;8.00;99.90;;;;;;4995911;28;20137;-90
2021/12/24 05:40:47;;;;;;;2.30;1.83;;;8.00;99.90;;;;;;4979739;28;20044;-90
2021/12/24 05:43:12;;;;;;;7.15;4.30;;;8.00;99.90;;;;;;4997049;28;20498;-89
2021/12/24 05:45:38;;;;;;;2.80;1.65;;;8.00;99.90;;;;;;4979634;28;20057;-89
2021/12/24 05:48:04;;;;;;;4.22;1.83;;;8.00;99.90;;;;;;4979766;28;20199;-89
2021/12/24 05:50:30;;;;;;;5.75;1.67;;;8.00;99.90;;;;;;4979740;28;20050;-90
2021/12/24 05:52:56;;;;;;;10.18;3.38;;;8.10;99.90;;;;;;4979576;28;20501;-90
2021/12/24 05:55:22;;;;;;;8.45;3.33;;;8.00;99.90;;;;;;4979219;28;20384;-90
2021/12/24 05:57:48;;;;;;;7.13;3.50;;;8.00;99.90;;;;;;4996442;28;20050;-90
2021/12/24 06:00:15;;;;;;;7.00;6.13;;;8.00;99.90;;;;;;4997114;28;20519;-91
2021/12/24 06:02:41;;;;;;;5.82;4.65;;;8.00;99.90;;;;;;4979908;28;20047;-90
2021/12/24 06:05:08;;;;;;;4.13;3.78;;;8.10;99.90;;;;;;4996744;28;20043;-88
2021/12/24 06:07:34;;;;;;;4.78;3.90;;;8.00;99.90;;;;;;5015204;28;20153;-90
2021/12/24 06:10:00;;;;;;;1.83;1.73;;;8.00;99.90;;;;;;4998616;28;20081;-91
2021/12/24 06:12:26;;;;;;;7.47;4.53;;;8.10;99.90;;;;;;5015406;28;20047;-85
2021/12/24 06:14:55;;;;;;;4.97;3.78;;;8.10;99.90;;;;;;4998888;28;20073;-90
2021/12/24 06:17:22;;;;;;;3.50;3.08;;;8.10;99.90;;;;;;4998567;28;20042;-89
2021/12/24 06:19:49;;;;;;;6.15;2.85;;;8.00;99.90;;;;;;4998612;28;20045;-90
2021/12/24 06:22:14;;;;;;;3.80;2.28;;;8.10;99.90;;;;;;4998492;28;20079;-90
2021/12/24 06:24:40;;;;;;;2.10;1.95;;;8.10;99.90;;;;;;4998102;28;20132;-90
2021/12/24 06:27:06;;;;;;;1.77;1.58;;;8.10;99.90;;;;;;5031434;28;20050;-89
2021/12/24 06:29:32;;;;;;;3.65;1.85;;;8.10;99.90;;;;;;5014806;28;20050;-90
2021/12/24 06:31:58;;;;;;;5.43;3.10;;;8.10;99.90;;;;;;4998741;28;20058;-88
2021/12/24 06:34:26;;;;;;;4.97;4.05;;;8.10;99.90;;;;;;5014909;28;20123;-90
2021/12/24 06:36:53;;;;;;;3.25;3.05;;;8.10;99.90;;;;;;4998487;28;20096;-90
2021/12/24 06:39:19;;;;;;;2.30;1.75;;;8.10;99.90;;;;;;4998889;28;20045;-89
2021/12/24 06:41:45;;;;;;;7.90;4.25;;;8.10;99.90;;;;;;5014284;28;20052;-91
2021/12/24 06:44:12;;;;;;;11.40;2.28;;;8.00;99.90;;;;;;5014635;28;20056;-88
2021/12/24 06:46:40;;;;;;;2.60;2.50;;;8.00;99.90;;;;;;4998183;28;20053;-85
2021/12/24 06:49:06;;;;;;;11.20;4.93;;;8.00;99.90;;;;;;4998724;28;20141;-88
2021/12/24 06:51:32;;;;;;;2.65;2.45;;;8.00;99.90;;;;;;5015112;28;20046;-88
2021/12/24 06:53:58;;;;;;;2.22;2.13;;;8.00;99.90;;;;;;5007309;28;20054;-88
2021/12/24 06:56:23;;;;;;;6.03;3.60;;;8.00;99.90;;;;;;5022264;28;20045;-90
2021/12/24 06:58:49;;;;;;;0.35;0.35;;;7.90;99.90;;;;;;5015621;28;20550;-88
2021/12/24 07:01:16;;;;;;;7.72;2.75;;;8.00;99.90;;;;;;5015310;28;20494;-82
2021/12/24 07:03:42;;;;;;;5.78;2.88;;;8.00;99.90;;;;;;4997780;28;20429;-91
2021/12/24 07:06:08;;;;;;;1.70;1.60;;;8.00;99.90;;;;;;4997788;28;20065;-79
2021/12/24 07:08:35;;;;;;;4.82;2.35;;;8.00;99.90;;;;;;4997887;28;20057;-90
2021/12/24 07:11:01;;;;;;;3.45;2.33;;;8.00;99.90;;;;;;5014863;28;20033;-90
2021/12/24 07:13:27;;;;;;;2.00;1.60;;;8.00;99.90;;;;;;5013616;28;20100;-90
2021/12/24 07:15:53;;;;;;;3.78;2.10;;;8.00;99.90;;;;;;5013709;28;20104;-90
2021/12/24 07:18:19;;;;;;;3.20;1.63;;;8.00;99.90;;;;;;4997161;28;20465;-87
2021/12/24 07:20:45;;;;;;;2.90;2.67;;;8.00;99.90;;;;;;5013740;28;20053;-91
2021/12/24 07:23:11;;;;;;;2.17;2.00;;;8.00;99.90;;;;;;4997067;28;20380;-82
2021/12/24 07:25:37;;;;;;;17.23;4.68;;;7.90;99.90;;;;;;5014944;28;20486;-85
2021/12/24 07:28:03;;;;;;;4.22;0.82;;;7.90;99.90;;;;;;5014648;28;20042;-90
2021/12/24 07:30:29;;;;;;;2.25;2.08;;;7.90;99.90;;;;;;5013194;28;20053;-90
2021/12/24 07:32:55;;;;;;;2.20;1.85;;;7.90;99.90;;;;;;5013144;28;20410;-89
2021/12/24 07:35:21;;;;;;;4.25;3.88;;;7.90;99.90;;;;;;5014629;28;20175;-90
2021/12/24 07:37:47;;;;;;;1.27;1.17;;;8.00;99.90;;;;;;4996928;28;20132;-86
2021/12/24 07:40:15;;;;;;;2.47;1.20;;;7.90;99.90;;;;;;5013611;28;20053;-91
2021/12/24 07:42:46;;;;;;;1.27;1.17;;;7.90;99.90;;;;;;5013253;28;20096;-90
2021/12/24 07:45:13;;;;;;;2.30;1.25;;;7.90;99.90;;;;;;5014057;28;20054;-89
2021/12/24 07:47:42;;;;;;;24.98;3.35;;;7.90;99.90;;;;;;5013562;28;20080;-87
2021/12/24 07:51:54;;;;;;;0.82;0.82;;;7.90;99.90;;;;;;5013773;28;20050;-82
2021/12/24 07:53:00;;;;;;;2.05;1.90;;;7.90;99.90;;;;;;4997033;28;20049;-91
2021/12/24 07:55:26;;;;;;;10.98;3.90;;;7.90;99.90;;;;;;4996927;28;20142;-89
2021/12/24 07:57:52;;;;;;;4.93;2.35;;;7.90;99.90;;;;;;4996632;28;20513;-91
2021/12/24 08:00:22;;;;;;;3.83;1.75;;;7.80;99.90;;;;;;4996514;28;20046;-90
2021/12/24 08:02:48;;;;;;;0.82;0.82;;;7.80;99.90;;;;;;5014065;28;20068;-88
2021/12/24 08:05:15;;;;;;;2.63;2.42;;;7.80;99.90;;;;;;5013878;28;20502;-87
2021/12/24 08:07:40;;;;;;;11.18;3.80;;;7.80;99.90;;;;;;5012744;28;20065;-91
2021/12/24 08:10:06;;;;;;;0.60;0.60;;;7.80;99.90;;;;;;4996865;28;20114;-90
2021/12/24 08:12:32;;;;;;;1.73;1.65;;;7.80;99.90;;;;;;5013581;28;20117;-90
2021/12/24 08:14:58;;;;;;;1.45;1.40;;;7.80;99.90;;;;;;4996599;28;20058;-91
2021/12/24 08:17:23;;;;;;;1.67;1.67;;;7.80;99.90;;;;;;5013249;28;20049;-91
2021/12/24 08:19:49;;;;;;;5.15;1.50;;;7.80;99.90;;;;;;5014017;28;20474;-91
2021/12/24 08:22:15;;;;;;;1.85;1.85;;;7.80;99.90;;;;;;4980707;28;20156;-90
2021/12/24 08:24:41;;;;;;;3.38;3.15;;;7.80;99.90;;;;;;5013467;28;20077;-89
2021/12/24 08:27:07;;;;;;;1.77;1.67;;;7.80;99.90;;;;;;5014814;28;20058;-89
2021/12/24 08:29:33;;;;;;;8.55;2.80;;;7.70;99.90;;;;;;5013410;28;20050;-91
2021/12/24 08:32:01;;;;;;;1.45;1.35;;;7.70;99.90;;;;;;5012625;28;20060;-90
2021/12/24 08:34:27;;;;;;;1.05;0.73;;;7.70;99.90;;;;;;4997430;28;20057;-89
2021/12/24 08:36:53;;;;;;;0.70;0.70;;;7.70;99.90;;;;;;5017103;28;20050;-91
2021/12/24 08:39:19;;;;;;;1.65;0.68;;;7.70;99.90;;;;;;5000753;28;20065;-91
2021/12/24 08:41:46;;;;;;;7.95;2.70;;;7.70;99.90;;;;;;5000259;28;20570;-84
2021/12/24 08:44:12;;;;;;;6.55;1.17;;;7.70;99.90;;;;;;5007185;28;20050;-86
2021/12/24 08:46:38;;;;;;;1.27;1.17;;;7.70;99.90;;;;;;5027789;28;20049;-84
2021/12/24 08:49:04;;;;;;;1.05;0.60;;;7.70;99.90;;;;;;5002978;28;20093;-90
2021/12/24 08:51:31;;;;;;;1.67;1.67;;;7.70;99.90;;;;;;5000611;28;20050;-89
2021/12/24 08:53:57;;;;;;;0.77;0.77;;;7.70;99.90;;;;;;5016497;28;20052;-89
2021/12/24 08:56:23;;;;;;;1.77;1.67;;;7.70;99.90;;;;;;5016288;28;20085;-88
2021/12/24 08:58:49;;;;;;;2.70;2.55;;;7.70;99.90;;;;;;4999479;28;20088;-87
2021/12/24 09:01:15;;;;;;;3.08;1.80;;;7.80;99.90;;;;;;5017211;28;20413;-89
2021/12/24 09:03:40;;;;;;;0.35;0.35;;;7.80;99.90;;;;;;5000075;28;20125;-89
2021/12/24 09:06:06;;;;;;;0.63;0.63;;;7.80;99.90;;;;;;4999806;28;20057;-90
2021/12/24 09:08:32;;;;;;;15.82;7.32;;;7.80;99.90;;;;;;5016544;28;20056;-79
2021/12/24 09:10:58;;;;;;;5.78;1.90;;;7.70;99.90;;;;;;4998873;28;20120;-80
2021/12/24 09:13:24;;;;;;;12.63;1.80;;;7.70;99.90;;;;;;4998878;28;20060;-80
2021/12/24 09:15:50;;;;;;;0.90;0.73;;;7.70;99.90;;;;;;4999010;28;20045;-81
2021/12/24 09:18:15;;;;;;;0.82;0.82;;;7.70;99.90;;;;;;4998684;28;20038;-79
2021/12/24 09:20:43;;;;;;;0.63;0.50;;;7.70;99.90;;;;;;4998852;28;20042;-81
2021/12/24 09:23:10;;;;;;;1.10;0.75;;;7.80;99.90;;;;;;4998570;28;20049;-90
2021/12/24 09:25:37;;;;;;;1.45;0.95;;;7.70;99.90;;;;;;4998568;28;20045;-79
2021/12/24 09:28:04;;;;;;;1.25;1.25;;;7.70;99.90;;;;;;5016376;28;20044;-79
2021/12/24 09:30:30;;;;;;;1.42;1.33;;;7.80;99.90;;;;;;4998375;28;20045;-79
2021/12/24 09:32:56;;;;;;;1.30;0.90;;;7.80;99.90;;;;;;5015668;28;20104;-86
2021/12/24 09:35:22;;;;;;;1.77;1.67;;;7.80;99.90;;;;;;4998330;28;20046;-91
2021/12/24 09:37:49;;;;;;;3.00;1.42;;;7.80;99.90;;;;;;4998349;28;20061;-78
2021/12/24 09:40:16;;;;;;;6.32;1.45;;;7.70;99.90;;;;;;4998107;28;20046;-82
2021/12/24 09:42:42;;;;;;;1.50;1.23;;;7.80;99.90;;;;;;5015890;28;20046;-79
2021/12/24 09:45:09;;;;;;;2.63;1.98;;;7.80;99.90;;;;;;5015518;28;20046;-82
2021/12/24 09:47:37;;;;;;;1.40;1.30;;;7.80;99.90;;;;;;4997685;28;20049;-80
2021/12/24 09:50:04;;;;;;;5.68;1.45;;;7.70;99.90;;;;;;4999285;28;20085;-91
2021/12/24 09:52:31;;;;;;;3.92;0.65;;;7.80;99.90;;;;;;4998717;28;20046;-91
2021/12/24 09:54:57;;;;;;;6.60;2.30;;;7.80;99.90;;;;;;4998402;28;20137;-83
2021/12/24 09:57:23;;;;;;;1.63;0.50;;;7.80;99.90;;;;;;4998898;28;20129;-85
2021/12/24 09:59:48;;;;;;;1.35;1.10;;;7.80;99.90;;;;;;4998841;28;20046;-89
2021/12/24 10:02:17;;;;;;;0.85;0.85;;;7.80;99.90;;;;;;4998644;28;20058;-90
2021/12/24 10:04:44;;;;;;;1.13;1.00;;;7.80;99.90;;;;;;4999234;28;20110;-91
2021/12/24 10:07:12;;;;;;;1.75;1.65;;;7.80;99.90;;;;;;5000297;28;20141;-91
2021/12/24 10:09:43;;;;;;;1.30;0.90;;;7.70;99.90;;;;;;5002929;28;20052;-84
2021/12/24 10:12:27;;;;;;;0.73;0.73;;;7.80;99.90;;;;;;5003025;28;20077;-90
2021/12/24 10:14:59;;;;;;;4.55;4.13;;;7.80;99.90;;;;;;4999360;28;20088;-91
2021/12/24 10:17:34;;;;;;;0.60;0.60;;;7.80;99.90;;;;;;5014614;28;20065;-89
2021/12/24 10:20:09;;;;;;;1.00;0.68;;;7.80;99.90;;;;;;5014762;28;20049;-90
2021/12/24 10:22:47;;;;;;;1.85;0.95;;;7.80;99.90;;;;;;4998341;28;20060;-90
2021/12/24 10:25:14;;;;;;;2.53;1.33;;;7.90;99.90;;;;;;5015263;28;20049;-89
2021/12/24 10:27:41;;;;;;;0.38;0.32;;;7.90;99.90;;;;;;4998124;28;20054;-89
2021/12/24 10:30:27;;;;;;;4.00;0.90;;;7.80;99.90;;;;;;4998115;28;20061;-91
2021/12/24 10:32:55;;;;;;;0.20;0.20;;;7.80;99.90;;;;;;4998144;28;20089;-91
2021/12/24 10:35:24;;;;;;;0.82;0.82;;;7.80;99.90;;;;;;4998070;28;20391;-90
2021/12/24 10:38:19;;;;;;;1.70;1.58;;;7.80;99.90;;;;;;4997932;28;20123;-90
2021/12/24 10:40:52;;;;;;;0.50;0.50;;;7.80;99.90;;;;;;4997924;28;20046;-91
2021/12/24 10:43:33;;;;;;;0.60;0.60;;;7.80;99.90;;;;;;4998022;28;20054;-88
2021/12/24 10:46:18;;;;;;;0.35;0.35;;;7.80;99.90;;;;;;5015589;28;20050;-89
2021/12/24 10:49:14;;;;;;;0.20;0.20;;;7.30;99.90;;;;;;5014370;28;20054;-88
2021/12/24 10:54:53;;;;;;;0.77;0.77;;;6.70;99.90;;;;;;5015482;28;20042;-91
2021/12/24 10:57:23;;;;;;;1.30;1.10;;;6.50;99.90;;;;;;5014528;28;20042;-87
2021/12/24 10:59:50;;;;;;;2.72;2.45;;;6.30;99.90;;;;;;5018205;28;20045;-89
2021/12/24 11:02:17;;;;;;;1.10;0.65;;;6.20;99.90;;;;;;5017873;28;20049;-88
2021/12/24 11:04:44;;;;;;;1.02;0.63;;;6.10;99.90;;;;;;5019048;28;20046;-88
2021/12/24 11:07:37;;;;;;;0.17;0.17;;;6.20;99.90;;;;;;5016159;28;20054;-88
2021/12/24 11:10:19;;;;;;;0.25;0.25;;;6.10;99.90;;;;;;5014785;28;20046;-89
2021/12/24 11:12:48;;;;;;;0.63;0.63;;;6.00;99.90;;;;;;4997454;28;20054;-89
2021/12/24 11:15:19;;;;;;;0.40;0.40;;;6.00;99.90;;;;;;4997179;28;20086;-87
2021/12/24 11:17:45;;;;;;;0.65;0.60;;;6.00;99.90;;;;;;4997085;28;20049;-88
2021/12/24 11:20:12;;;;;;;0.93;0.93;;;6.00;99.90;;;;;;4997126;28;20502;-89
2021/12/24 11:23:00;;;;;;;0.10;0.10;;;5.90;99.90;;;;;;5014668;28;20405;-85
2021/12/24 11:25:32;;;;;;;1.30;1.30;;;5.80;99.90;;;;;;4996996;28;20068;-88
2021/12/24 11:27:58;;;;;;;0.73;0.73;;;5.80;99.90;;;;;;5014769;28;20069;-87
2021/12/24 11:30:26;;;;;;;0.30;0.30;;;5.90;99.90;;;;;;5013433;28;20129;-90
2021/12/24 11:32:52;;;;;;;0.70;0.70;;;5.80;99.90;;;;;;4997060;28;20050;-89
2021/12/24 11:35:17;;;;;;;0.20;0.20;;;5.80;99.90;;;;;;4997040;28;20056;-89
2021/12/24 11:37:46;;;;;;;2.05;0.68;;;5.80;99.90;;;;;;5014390;28;20383;-89
2021/12/24 11:40:15;;;;;;;0.77;0.73;;;5.80;99.90;;;;;;5014205;28;20399;-88
2021/12/24 11:42:43;;;;;;;0.40;0.40;;;5.80;99.90;;;;;;4996662;28;20041;-88
2021/12/24 11:45:09;;;;;;;0.85;0.32;;;5.80;99.90;;;;;;5014544;28;20041;-88
2021/12/24 11:47:35;;;;;;;0.35;0.35;;;5.80;99.90;;;;;;5014536;28;20056;-84
2021/12/24 11:50:01;;;;;;;1.10;0.82;;;5.80;99.90;;;;;;5013894;28;20454;-86
2021/12/24 11:52:27;;;;;;;0.80;0.65;;;5.90;99.90;;;;;;5014476;28;20056;-90
2021/12/24 11:54:56;;;;;;;1.25;1.25;;;5.80;99.90;;;;;;4996836;28;20121;-90
2021/12/24 11:57:22;;;;;;;0.20;0.20;;;5.90;99.90;;;;;;5014272;28;20045;-89
2021/12/24 11:59:48;;;;;;;1.98;1.88;;;5.90;99.90;;;;;;5013913;28;20406;-88
2021/12/24 12:02:34;;;;;;;1.05;1.05;;;5.90;99.90;;;;;;5013418;28;20056;-89
2021/12/24 12:05:27;;;;;;;0.70;0.70;;;6.00;99.90;;;;;;5014145;28;20053;-89
2021/12/24 12:08:25;;;;;;;0.20;0.20;;;6.00;99.90;;;;;;5014240;28;20053;-86
2021/12/24 12:11:02;;;;;;;0.95;0.50;;;5.90;99.90;;;;;;5013676;28;20045;-89
2021/12/24 12:13:49;;;;;;;0.40;0.40;;;5.90;99.90;;;;;;4996716;28;20596;-90
2021/12/24 12:16:22;;;;;;;0.68;0.68;;;5.90;99.90;;;;;;4996806;28;20099;-89
2021/12/24 12:19:08;;;;;;;1.23;0.57;;;5.90;99.90;;;;;;5013943;28;20053;-89
2021/12/24 12:21:44;;;;;;;1.38;1.00;;;5.80;99.90;;;;;;5014335;28;20096;-90
2021/12/24 12:26:48;;;;;;;2.47;0.55;;;5.80;99.90;;;;;;5029632;28;20108;-85
2021/12/24 12:29:31;;;;;;;3.42;0.57;;;5.80;99.90;;;;;;5014059;28;20107;-87
2021/12/24 12:32:24;;;;;;;0.45;0.45;;;5.80;99.90;;;;;;4996564;28;20053;-90
2021/12/24 12:34:53;;;;;;;3.10;0.55;;;5.80;99.90;;;;;;4993886;28;20065;-89
2021/12/24 12:37:19;;;;;;;3.83;0.90;;;5.80;99.90;;;;;;5014090;28;20057;-90
2021/12/24 12:39:47;;;;;;;0.75;0.75;;;5.80;99.90;;;;;;5029458;28;20046;-89
2021/12/24 12:42:16;;;;;;;0.22;0.22;;;5.70;99.90;;;;;;5013888;28;20498;-89
2021/12/24 12:44:46;;;;;;;15.95;4.55;;;5.70;99.90;;;;;;5013954;28;20038;-90
2021/12/24 12:47:19;;;;;;;9.13;2.72;;;5.70;99.90;;;;;;5013359;28;20086;-89
2021/12/24 12:49:46;;;;;;;3.15;2.95;;;5.70;99.90;;;;;;4997988;28;20054;-89
2021/12/24 12:52:31;;;;;;;3.10;1.52;;;5.70;99.90;;;;;;5018785;28;20038;-88
2021/12/24 12:54:58;;;;;;;1.48;1.38;;;5.60;99.90;;;;;;5018451;28;20089;-89
2021/12/24 12:57:32;;;;;;;1.38;1.20;;;5.60;99.90;;;;;;5031878;28;20096;-89
2021/12/24 13:00:07;;;;;;;5.22;4.05;;;5.60;99.90;;;;;;4997347;28;20045;-89
2021/12/24 13:03:06;;;;;;;1.95;1.05;;;5.50;99.90;;;;;;5019130;28;20064;-87
2021/12/24 13:05:38;;;;;;;0.50;0.50;;;5.50;99.90;;;;;;5017124;28;20058;-86
2021/12/24 13:08:22;;;;;;;1.33;1.25;;;5.50;99.90;;;;;;5030932;28;20513;-87
2021/12/24 13:11:05;;;;;;;1.73;1.60;;;5.50;99.90;;;;;;5012585;28;20553;-90
2021/12/24 13:13:56;;;;;;;0.73;0.63;;;5.50;99.90;;;;;;5013777;28;20068;-89
2021/12/24 13:16:37;;;;;;;2.88;1.90;;;5.50;99.90;;;;;;4937163;29;20579;-89
2021/12/24 13:24:36;;;;;;;1.23;1.15;;;5.50;99.90;;;;;;4940260;29;20511;-85
2021/12/24 13:27:03;;;;;;;2.65;1.20;;;5.50;99.90;;;;;;4956481;29;20055;-88
2021/12/24 13:29:28;;;;;;;1.70;1.30;;;5.60;99.90;;;;;;4940717;29;20206;-87
2021/12/24 13:31:56;;;;;;;0.75;0.75;;;5.60;99.90;;;;;;4956499;29;20134;-87
2021/12/24 13:34:24;;;;;;;4.53;1.20;;;5.60;99.90;;;;;;4956333;29;20055;-87
2021/12/24 13:36:50;;;;;;;2.10;0.95;;;5.60;99.90;;;;;;4956383;29;20047;-87
2021/12/24 13:39:23;;;;;;;1.85;1.67;;;5.60;99.90;;;;;;4956325;29;20061;-88
2021/12/24 13:42:03;;;;;;;2.65;1.80;;;5.60;99.90;;;;;;4956360;29;20043;-86
2021/12/24 13:44:32;;;;;;;1.60;1.52;;;5.70;99.90;;;;;;4940193;29;20047;-88
2021/12/24 13:47:07;;;;;;;1.58;1.10;;;5.70;99.90;;;;;;4972825;28;20453;-87
2021/12/24 13:50:03;;;;;;;1.85;1.23;;;5.70;99.90;;;;;;4974309;28;20047;-89
2021/12/24 13:55:22;;;;;;;;;;;5.70;99.90;;;;;;5018182;28;20065;-86
2021/12/24 13:57:56;;;;;;;0.40;0.40;;;5.60;99.90;;;;;;5017901;28;19922;-87
2021/12/24 14:00:23;;;;;;;0.98;0.82;;;5.60;99.90;;;;;;5000129;28;20049;-88
2021/12/24 14:02:57;;;;;;;3.50;0.95;;;5.60;99.90;;;;;;5000213;28;20526;-87
2021/12/24 14:05:24;;;;;;;0.38;0.38;;;5.60;99.90;;;;;;4999586;28;20108;-88
2021/12/24 14:08:11;;;;;;;0.40;0.40;;;5.60;99.90;;;;;;4999414;28;20057;-88
2021/12/24 14:10:39;;;;;;;0.40;0.40;;;5.50;99.90;;;;;;5032070;28;20046;-81
2021/12/24 14:13:11;;;;;;;4.88;1.25;;;5.60;99.90;;;;;;4999354;28;20057;-88
2021/12/24 14:15:57;;;;;;;0.50;0.50;;;5.50;99.90;;;;;;4999378;28;20104;-87
2021/12/24 14:18:32;;;;;;;0.63;0.63;;;5.50;99.90;;;;;;4999078;28;20049;-87
2021/12/24 14:21:44;;;;;;;2.90;1.48;;;5.40;99.90;;;;;;5000121;28;20053;-88
2021/12/24 14:23:44;;;;;;;0.85;0.85;;;5.40;99.90;;;;;;5004352;28;20056;-87
2021/12/24 14:26:11;;;;;;;0.30;0.30;;;5.40;99.90;;;;;;4984850;28;20046;-87
2021/12/24 14:28:37;;;;;;;1.88;0.43;;;5.40;99.90;;;;;;5002337;28;20046;-88
2021/12/24 14:31:05;;;;;;;0.47;0.47;;;5.40;99.90;;;;;;5015062;28;20121;-91
2021/12/24 14:33:37;;;;;;;0.45;0.45;;;5.30;99.90;;;;;;5031164;28;20401;-91
2021/12/24 14:36:03;;;;;;;;;;;5.30;99.90;;;;;;5017396;28;20069;-86
2021/12/24 14:38:29;;;;;;;5.97;0.88;;;5.30;99.90;;;;;;5030852;28;19985;-87
2021/12/24 14:40:57;;;;;;;5.95;0.85;;;5.30;99.90;;;;;;5016454;28;20164;-86
2021/12/24 14:43:23;;;;;;;0.28;0.28;;;5.30;99.90;;;;;;5033962;28;20054;-91
2021/12/24 14:45:51;;;;;;;27.65;13.60;;;5.30;99.90;;;;;;5001042;28;20057;-90
2021/12/24 14:48:20;;;;;;;19.15;6.65;;;5.30;99.90;;;;;;5030994;28;20060;-85
2021/12/24 14:50:47;;;;;;;12.85;7.88;;;5.30;99.90;;;;;;5030925;28;20045;-87
2021/12/24 14:53:18;;;;;;;2.47;1.38;;;5.30;99.90;;;;;;5014229;28;20050;-85
2021/12/24 14:55:49;;;;;;;5.60;4.07;;;5.30;99.90;;;;;;4998173;28;20046;-87
2021/12/24 14:58:37;;;;;;;9.38;3.13;;;5.30;99.90;;;;;;5030443;28;20100;-85
2021/12/24 15:01:13;;;;;;;4.30;4.10;;;5.40;99.90;;;;;;4997132;28;20041;-84